createdAt,value
2018-11-03T00:02:14.821Z,98.80
2018-11-03T00:04:42.905Z,98.90
2018-11-03T00:07:10.795Z,98.20
2018-11-03T00:09:39.481Z,97.40
2018-11-03T00:12:06.429Z,97.80
2018-11-03T00:14:34.245Z,97.80
2018-11-03T00:17:02.073Z,97.90
2018-11-03T00:19:29.234Z,97.90
2018-11-03T00:21:57.176Z,97.40
2018-11-03T00:24:24.900Z,96.70
2018-11-03T00:26:52.554Z,96.50
2018-11-03T00:29:20.641Z,96.80
2018-11-03T00:31:48.065Z,96.60
2018-11-03T00:34:17.186Z,96.20
2018-11-03T00:36:45.618Z,96.50
2018-11-03T00:39:12.541Z,96.60
2018-11-03T00:41:40.699Z,96.70
2018-11-03T00:44:07.398Z,96.40
2018-11-03T00:46:34.973Z,96.10
2018-11-03T00:49:01.448Z,96.00
2018-11-03T00:51:30.200Z,96.00
2018-11-03T00:54:00.567Z,95.80
2018-11-03T00:59:04.826Z,96.20
2018-11-03T01:01:31.326Z,96.50
2018-11-03T01:03:59.298Z,96.80
2018-11-03T01:06:27.914Z,97.10
2018-11-03T01:08:55.059Z,96.40
2018-11-03T01:11:21.569Z,96.00
2018-11-03T01:13:53.386Z,95.70
2018-11-03T01:16:20.488Z,95.80
2018-11-03T01:18:48.996Z,95.40
2018-11-03T01:21:16.959Z,95.30
2018-11-03T01:23:45.176Z,95.70
2018-11-03T01:26:13.964Z,96.60
2018-11-03T01:28:42.176Z,96.80
2018-11-03T01:33:57.191Z,96.50
2018-11-03T01:36:23.703Z,95.80
2018-11-03T01:38:50.325Z,96.50
2018-11-03T01:41:18.153Z,96.50
2018-11-03T01:43:44.654Z,96.40
2018-11-03T01:46:11.154Z,95.90
2018-11-03T01:48:37.670Z,95.80
2018-11-03T01:51:05.031Z,95.60
2018-11-03T01:53:31.635Z,95.90
2018-11-03T01:55:58.326Z,95.60
2018-11-03T01:58:24.810Z,95.70
2018-11-03T02:00:51.328Z,95.40
2018-11-03T02:03:17.899Z,95.60
2018-11-03T02:05:44.380Z,96.80
2018-11-03T02:08:10.955Z,96.80
2018-11-03T02:10:37.784Z,96.20
2018-11-03T02:13:04.255Z,95.70
2018-11-03T02:15:30.903Z,95.40
2018-11-03T02:17:58.408Z,95.20
2018-11-03T02:20:25.045Z,95.70
2018-11-03T02:22:51.539Z,95.60
2018-11-03T02:25:18.149Z,95.70
2018-11-03T02:27:44.696Z,95.70
2018-11-03T02:30:11.169Z,95.60
2018-11-03T02:32:41.152Z,95.40
2018-11-03T02:35:07.883Z,95.80
2018-11-03T02:37:34.343Z,95.90
2018-11-03T02:40:00.873Z,96.20
2018-11-03T02:42:27.327Z,96.10
2018-11-03T02:44:53.975Z,97.00
2018-11-03T02:47:20.651Z,97.00
2018-11-03T02:49:47.105Z,97.30
2018-11-03T02:52:13.812Z,96.70
2018-11-03T02:54:40.884Z,96.70
2018-11-03T02:57:07.364Z,96.50
2018-11-03T02:59:34.021Z,96.00
2018-11-03T03:02:01.887Z,96.10
2018-11-03T03:04:28.445Z,95.90
2018-11-03T03:06:55.106Z,96.00
2018-11-03T03:09:21.702Z,96.20
2018-11-03T03:11:48.724Z,96.80
2018-11-03T03:14:15.396Z,96.90
2018-11-03T03:16:41.863Z,96.70
2018-11-03T03:19:08.573Z,96.80
2018-11-03T03:21:35.070Z,96.60
2018-11-03T03:24:01.786Z,96.40
2018-11-03T03:26:28.264Z,96.70
2018-11-03T03:28:55.763Z,96.30
2018-11-03T03:31:22.440Z,96.10
2018-11-03T03:33:49.040Z,96.40
2018-11-03T03:36:15.557Z,96.30
2018-11-03T03:38:42.069Z,95.90
2018-11-03T03:41:08.536Z,97.00
2018-11-03T03:43:35.209Z,96.80
2018-11-03T03:46:01.958Z,96.40
2018-11-03T03:48:28.749Z,96.00
2018-11-03T03:50:55.299Z,96.40
2018-11-03T03:53:22.048Z,96.10
2018-11-03T03:55:48.718Z,96.70
2018-11-03T03:58:15.216Z,96.40
2018-11-03T04:00:41.893Z,96.90
2018-11-03T04:03:08.349Z,97.00
2018-11-03T04:05:35.019Z,96.40
2018-11-03T04:08:01.911Z,95.90
2018-11-03T04:10:28.489Z,96.30
2018-11-03T04:12:55.141Z,97.10
2018-11-03T04:15:21.755Z,96.80
2018-11-03T04:17:48.206Z,96.50
2018-11-03T04:20:14.881Z,96.00
2018-11-03T04:22:43.516Z,96.40
2018-11-03T04:27:44.891Z,96.00
2018-11-03T04:30:13.636Z,95.90
2018-11-03T04:32:42.437Z,96.50
2018-11-03T04:35:09.257Z,96.20
2018-11-03T04:37:36.422Z,95.90
2018-11-03T04:40:04.603Z,95.80
2018-11-03T04:42:36.061Z,95.90
2018-11-03T04:45:03.279Z,95.50
2018-11-03T04:47:31.921Z,95.80
2018-11-03T04:49:59.242Z,95.70
2018-11-03T04:52:26.940Z,95.40
2018-11-03T04:54:54.063Z,96.40
2018-11-03T04:57:23.019Z,96.80
2018-11-03T04:59:51.512Z,96.20
2018-11-03T05:02:19.944Z,96.00
2018-11-03T05:04:46.864Z,96.50
2018-11-03T05:07:13.402Z,97.40
2018-11-03T05:09:40.676Z,98.70
2018-11-03T05:12:08.591Z,98.50
2018-11-03T05:14:36.089Z,97.80
2018-11-03T05:17:07.607Z,96.90
2018-11-03T05:19:34.815Z,96.10
2018-11-03T05:22:03.471Z,96.40
2018-11-03T05:24:31.138Z,95.80
2018-11-03T05:26:58.902Z,96.40
2018-11-03T05:29:27.007Z,96.70
2018-11-03T05:31:54.728Z,96.30
2018-11-03T05:34:27.446Z,96.50
2018-11-03T05:36:55.718Z,96.20
2018-11-03T05:39:23.481Z,95.90
2018-11-03T05:41:53.812Z,96.80
2018-11-03T05:44:21.270Z,96.70
2018-11-03T05:46:48.414Z,97.20
2018-11-03T05:49:18.801Z,97.00
2018-11-03T05:51:45.849Z,97.20
2018-11-03T05:54:13.159Z,96.90
2018-11-03T05:56:40.391Z,96.90
2018-11-03T05:59:08.297Z,96.50
2018-11-03T06:01:35.970Z,96.40
2018-11-03T06:04:03.737Z,96.00
2018-11-03T06:06:31.207Z,95.70
2018-11-03T06:08:59.496Z,95.40
2018-11-03T06:11:28.800Z,95.50
2018-11-03T06:13:56.343Z,95.70
2018-11-03T06:16:24.402Z,95.70
2018-11-03T06:18:53.044Z,95.90
2018-11-03T06:21:20.955Z,96.50
2018-11-03T06:23:47.430Z,96.00
2018-11-03T06:26:16.141Z,95.60
2018-11-03T06:28:45.637Z,95.20
2018-11-03T06:31:14.126Z,95.70
2018-11-03T06:33:41.271Z,95.40
2018-11-03T06:36:09.503Z,95.40
2018-11-03T06:38:37.813Z,95.30
2018-11-03T06:46:10.771Z,96.80
2018-11-03T06:48:38.358Z,96.50
2018-11-03T06:51:05.994Z,95.90
2018-11-03T06:53:37.541Z,95.80
2018-11-03T06:56:05.451Z,96.30
2018-11-03T06:58:34.040Z,97.20
2018-11-03T07:01:02.284Z,97.70
2018-11-03T07:03:29.579Z,97.70
2018-11-03T07:05:56.674Z,98.20
2018-11-03T07:08:24.423Z,97.70
2018-11-03T07:10:52.553Z,97.80
2018-11-03T07:13:21.004Z,96.80
2018-11-03T07:15:55.198Z,97.30
2018-11-03T07:18:23.104Z,97.30
2018-11-03T07:20:50.473Z,97.20
2018-11-03T07:23:18.964Z,98.10
2018-11-03T07:25:46.422Z,98.30
2018-11-03T07:28:14.672Z,97.50
2018-11-03T07:30:42.829Z,97.40
2018-11-03T07:33:11.679Z,97.00
2018-11-03T07:35:39.159Z,97.00
2018-11-03T07:38:07.011Z,97.50
2018-11-03T07:43:06.036Z,97.30
2018-11-03T07:45:34.120Z,96.80
2018-11-03T07:48:01.565Z,96.40
2018-11-03T07:50:29.395Z,96.60
2018-11-03T07:52:56.172Z,97.00
2018-11-03T07:55:23.651Z,96.80
2018-11-03T07:57:52.799Z,96.50
2018-11-03T08:00:21.205Z,96.60
2018-11-03T08:02:49.682Z,97.30
2018-11-03T08:05:17.998Z,97.60
2018-11-03T08:07:45.617Z,97.30
2018-11-03T08:10:13.726Z,96.90
2018-11-03T08:12:42.215Z,96.80
2018-11-03T08:15:11.442Z,96.60
2018-11-03T08:17:38.948Z,96.40
2018-11-03T08:20:07.242Z,97.20
2018-11-03T08:22:35.771Z,97.00
2018-11-03T08:25:04.349Z,96.50
2018-11-03T08:27:31.547Z,96.50
2018-11-03T08:30:00.055Z,96.30
2018-11-03T08:32:27.714Z,96.50
2018-11-03T08:34:57.015Z,96.40
2018-11-03T08:37:26.354Z,96.00
2018-11-03T08:39:56.339Z,95.80
2018-11-03T08:42:24.253Z,96.00
2018-11-03T08:44:52.955Z,96.20
2018-11-03T08:47:21.050Z,96.40
2018-11-03T08:49:50.207Z,96.20
2018-11-03T08:52:20.410Z,96.30
2018-11-03T08:54:47.486Z,96.40
2018-11-03T08:57:15.951Z,96.20
2018-11-03T08:59:43.202Z,96.60
2018-11-03T09:04:46.411Z,96.60
2018-11-03T09:07:13.368Z,97.10
2018-11-03T09:09:41.418Z,96.50
2018-11-03T09:12:10.559Z,96.80
2018-11-03T09:14:37.914Z,96.70
2018-11-03T09:17:05.532Z,97.10
2018-11-03T09:19:32.497Z,96.90
2018-11-03T09:22:01.018Z,96.30
2018-11-03T09:24:28.275Z,96.40
2018-11-03T09:26:56.900Z,97.50
2018-11-03T09:29:24.417Z,97.00
2018-11-03T09:31:51.751Z,96.90
2018-11-03T09:34:22.686Z,96.50
2018-11-03T09:39:22.865Z,96.70
2018-11-03T09:41:50.660Z,96.70
2018-11-03T09:44:18.168Z,97.10
2018-11-03T09:46:45.203Z,97.10
2018-11-03T09:49:13.952Z,97.50
2018-11-03T09:51:42.451Z,97.30
2018-11-03T09:54:10.681Z,97.40
2018-11-03T09:56:40.029Z,98.40
2018-11-03T10:01:40.971Z,98.30
2018-11-03T10:04:08.522Z,97.70
2018-11-03T10:06:36.009Z,97.50
2018-11-03T10:09:04.857Z,98.00
2018-11-03T10:11:32.053Z,97.40
2018-11-03T10:14:00.190Z,96.90
2018-11-03T10:16:28.528Z,97.00
2018-11-03T10:18:56.745Z,96.90
2018-11-03T10:21:24.517Z,96.70
2018-11-03T10:23:53.303Z,96.40
2018-11-03T10:28:54.082Z,96.30
2018-11-03T10:31:21.357Z,96.70
2018-11-03T10:33:49.491Z,96.00
2018-11-03T10:36:17.121Z,95.80
2018-11-03T10:38:44.209Z,96.50
2018-11-03T10:41:11.783Z,96.50
2018-11-03T10:43:39.447Z,97.00
2018-11-03T10:46:07.503Z,97.70
2018-11-03T10:48:35.392Z,97.40
2018-11-03T10:51:05.102Z,97.70
2018-11-03T10:53:33.594Z,97.50
2018-11-03T10:56:00.874Z,98.90
2018-11-03T10:58:29.873Z,98.10
2018-11-03T11:00:58.988Z,97.70
2018-11-03T11:03:25.715Z,98.50
2018-11-03T11:05:53.379Z,97.80
2018-11-03T11:08:22.559Z,97.10
2018-11-03T11:10:49.999Z,97.90
2018-11-03T11:13:18.469Z,97.50
2018-11-03T11:15:46.742Z,98.80
2018-11-03T11:18:14.263Z,98.20
2018-11-03T11:23:14.184Z,98.00
2018-11-03T11:25:40.922Z,97.20
2018-11-03T11:28:08.259Z,96.30
2018-11-03T11:30:36.089Z,96.20
2018-11-03T11:35:35.972Z,95.00
2018-11-03T11:38:04.543Z,94.80
2018-11-03T11:40:32.750Z,94.70
2018-11-03T11:43:00.566Z,94.40
2018-11-03T11:45:27.736Z,93.90
2018-11-03T11:47:55.511Z,93.30
2018-11-03T11:50:23.553Z,93.60
2018-11-03T11:52:52.409Z,93.80
2018-11-03T11:57:52.865Z,93.20
2018-11-03T12:00:20.709Z,93.70
2018-11-03T12:02:48.602Z,93.30
2018-11-03T12:05:15.749Z,91.80
2018-11-03T12:07:43.848Z,92.80
2018-11-03T12:10:10.857Z,92.70
2018-11-03T12:12:38.984Z,91.70
2018-11-03T12:15:08.477Z,91.70
2018-11-03T12:17:36.842Z,91.80
2018-11-03T12:20:04.145Z,91.60
2018-11-03T12:22:31.932Z,92.10
2018-11-03T12:24:59.325Z,92.80
2018-11-03T12:27:29.183Z,92.60
2018-11-03T12:29:56.730Z,93.60
2018-11-03T12:32:24.741Z,93.20
2018-11-03T12:34:51.969Z,93.10
2018-11-03T12:37:18.947Z,92.80
2018-11-03T12:39:49.151Z,92.80
2018-11-03T12:42:15.721Z,93.30
2018-11-03T12:44:42.511Z,92.40
2018-11-03T12:47:09.012Z,92.30
2018-11-03T12:52:08.708Z,93.40
2018-11-03T12:54:36.445Z,93.10
2018-11-03T12:57:05.464Z,92.60
2018-11-03T13:02:05.593Z,92.60
2018-11-03T13:04:32.445Z,92.00
2018-11-03T13:07:03.032Z,91.60
2018-11-03T13:09:31.729Z,91.50
2018-11-03T13:11:59.770Z,91.50
2018-11-03T13:14:28.224Z,92.20
2018-11-03T13:16:55.713Z,92.70
2018-11-03T13:19:25.204Z,92.50
2018-11-03T13:21:53.743Z,93.40
2018-11-03T13:26:57.503Z,92.50
2018-11-03T13:29:25.511Z,91.80
2018-11-03T13:31:52.599Z,92.60
2018-11-03T13:34:21.051Z,92.70
2018-11-03T13:36:47.886Z,92.30
2018-11-03T13:39:14.977Z,92.60
2018-11-03T13:41:42.231Z,92.60
2018-11-03T13:44:10.677Z,92.70
2018-11-03T13:46:37.241Z,92.80
2018-11-03T13:49:05.465Z,92.70
2018-11-03T13:51:34.829Z,93.10
2018-11-03T13:54:02.109Z,93.10
2018-11-03T13:56:31.640Z,92.60
2018-11-03T13:59:00.173Z,92.80
2018-11-03T14:01:27.648Z,92.80
2018-11-03T14:03:56.020Z,92.60
2018-11-03T14:06:22.533Z,92.70
2018-11-03T14:08:50.768Z,93.20
2018-11-03T14:11:18.332Z,92.40
2018-11-03T14:13:47.733Z,92.60
2018-11-03T14:16:15.589Z,92.60
2018-11-03T14:18:43.055Z,92.90
2018-11-03T14:21:10.058Z,92.30
2018-11-03T14:23:39.150Z,92.60
2018-11-03T14:26:08.023Z,92.50
2018-11-03T14:28:36.970Z,92.30
2018-11-03T14:31:09.514Z,92.00
2018-11-03T14:33:37.590Z,92.20
2018-11-03T14:36:06.359Z,92.40
2018-11-03T14:38:32.894Z,92.60
2018-11-03T14:41:01.679Z,93.20
2018-11-03T14:43:29.650Z,93.10
2018-11-03T14:45:56.823Z,92.60
2018-11-03T14:48:23.873Z,92.80
2018-11-03T14:50:52.190Z,92.10
2018-11-03T14:53:20.148Z,92.10
2018-11-03T14:55:47.532Z,91.70
2018-11-03T14:58:15.759Z,92.20
2018-11-03T15:00:43.132Z,92.00
2018-11-03T15:03:10.452Z,92.00
2018-11-03T15:05:38.920Z,92.20
2018-11-03T15:08:06.861Z,91.70
2018-11-03T15:10:34.518Z,91.70
2018-11-03T15:13:03.392Z,92.70
2018-11-03T15:15:30.231Z,92.90
2018-11-03T15:18:01.891Z,93.10
2018-11-03T15:20:29.450Z,92.40
2018-11-03T15:22:56.842Z,92.40
2018-11-03T15:25:24.276Z,92.10
2018-11-03T15:27:52.687Z,92.10
2018-11-03T15:30:22.282Z,92.30
2018-11-03T15:32:50.667Z,92.10
2018-11-03T15:35:17.710Z,92.20
2018-11-03T15:37:47.025Z,92.70
2018-11-03T15:42:45.924Z,92.90
2018-11-03T15:45:13.051Z,92.60
2018-11-03T15:47:41.521Z,93.10
2018-11-03T15:50:08.962Z,93.30
2018-11-03T15:52:37.480Z,93.70
2018-11-03T15:55:04.965Z,93.70
2018-11-03T16:00:05.772Z,93.50
2018-11-03T16:02:33.337Z,93.50
2018-11-03T16:05:00.683Z,93.80
2018-11-03T16:07:27.470Z,93.60
2018-11-03T16:09:56.286Z,93.20
2018-11-03T16:12:22.827Z,93.00
2018-11-03T16:14:53.166Z,92.90
2018-11-03T16:17:22.281Z,93.00
2018-11-03T16:19:50.345Z,93.40
2018-11-03T16:22:17.856Z,93.10
2018-11-03T16:24:46.025Z,92.80
2018-11-03T16:27:14.716Z,92.90
2018-11-03T16:29:43.597Z,93.40
2018-11-03T16:32:12.031Z,94.40
2018-11-03T16:34:40.225Z,94.70
2018-11-03T16:37:08.732Z,94.90
2018-11-03T16:39:36.478Z,95.10
2018-11-03T16:42:03.166Z,94.60
2018-11-03T16:47:02.153Z,95.40
2018-11-03T16:49:29.531Z,95.50
2018-11-03T16:51:56.915Z,94.60
2018-11-03T16:54:24.766Z,94.50
2018-11-03T16:56:51.340Z,94.40
2018-11-03T16:59:18.933Z,94.20
2018-11-03T17:01:46.723Z,93.80
2018-11-03T17:04:13.508Z,93.80
2018-11-03T17:06:40.616Z,94.00
2018-11-03T17:09:11.742Z,93.80
2018-11-03T17:11:42.321Z,93.90
2018-11-03T17:14:09.799Z,94.10
2018-11-03T17:16:36.653Z,93.90
2018-11-03T17:19:06.400Z,93.90
2018-11-03T17:21:34.100Z,93.60
2018-11-03T17:24:00.975Z,93.70
2018-11-03T17:26:28.290Z,94.00
2018-11-03T17:28:57.613Z,94.10
2018-11-03T17:31:24.987Z,93.90
2018-11-03T17:33:53.016Z,94.10
2018-11-03T17:38:57.183Z,94.60
2018-11-03T17:41:24.810Z,94.60
2018-11-03T17:43:52.284Z,94.60
2018-11-03T17:46:19.933Z,94.80
2018-11-03T17:48:46.981Z,95.20
2018-11-03T17:51:15.350Z,95.30
2018-11-03T17:53:43.234Z,95.30
2018-11-03T17:56:11.211Z,95.10
2018-11-03T18:01:10.775Z,94.90
2018-11-03T18:03:38.627Z,94.60
2018-11-03T18:06:06.860Z,94.60
2018-11-03T18:08:35.213Z,95.00
2018-11-03T18:11:02.861Z,94.70
2018-11-03T18:13:30.610Z,95.30
2018-11-03T18:15:57.209Z,95.10
2018-11-03T18:18:25.425Z,95.00
2018-11-03T18:20:53.289Z,94.90
2018-11-03T18:23:22.469Z,95.30
2018-11-03T18:25:49.711Z,95.50
2018-11-03T18:28:16.173Z,95.70
2018-11-03T18:33:16.717Z,94.70
2018-11-03T18:35:44.904Z,94.60
2018-11-03T18:38:13.502Z,94.40
2018-11-03T18:40:41.538Z,94.30
2018-11-03T18:43:09.158Z,94.40
2018-11-03T18:45:36.629Z,94.40
2018-11-03T18:48:05.611Z,94.40
2018-11-03T18:50:33.695Z,94.40
2018-11-03T18:53:00.532Z,94.60
2018-11-03T18:55:28.556Z,95.00
2018-11-03T18:57:55.001Z,95.80
2018-11-03T19:00:23.033Z,95.20
2018-11-03T19:02:51.019Z,94.70
2018-11-03T19:05:19.109Z,95.00
2018-11-03T19:07:46.882Z,94.50
2018-11-03T19:10:13.497Z,95.20
2018-11-03T19:12:41.699Z,95.00
2018-11-03T19:15:09.429Z,94.50
2018-11-03T19:17:36.743Z,94.10
2018-11-03T19:20:03.278Z,93.80
2018-11-03T19:22:31.926Z,93.80
2018-11-03T19:24:59.840Z,93.70
2018-11-03T19:27:26.916Z,94.60
2018-11-03T19:29:54.063Z,94.60
2018-11-03T19:32:23.361Z,94.40
2018-11-03T19:34:49.962Z,94.20
2018-11-03T19:37:16.485Z,93.80
2018-11-03T19:39:44.163Z,93.90
2018-11-03T19:42:11.692Z,93.50
2018-11-03T19:44:39.624Z,94.00
2018-11-03T19:47:06.447Z,94.10
2018-11-03T19:49:34.438Z,94.00
2018-11-03T19:52:00.911Z,93.50
2018-11-03T19:57:00.509Z,94.30
2018-11-03T19:59:28.872Z,94.70
2018-11-03T20:01:57.227Z,95.10
2018-11-03T20:04:24.338Z,95.30
2018-11-03T20:06:52.812Z,95.30
2018-11-03T20:09:20.471Z,95.30
2018-11-03T20:11:48.515Z,95.60
2018-11-03T20:14:16.041Z,95.40
2018-11-03T20:16:43.867Z,95.40
2018-11-03T20:19:11.774Z,94.90
2018-11-03T20:21:38.708Z,94.40
2018-11-03T20:24:06.884Z,94.20
2018-11-03T20:26:34.143Z,94.40
2018-11-03T20:29:01.604Z,94.20
2018-11-03T20:31:29.697Z,94.90
2018-11-03T20:33:58.997Z,95.20
2018-11-03T20:36:26.425Z,94.90
2018-11-03T20:38:58.104Z,94.40
2018-11-03T20:41:26.747Z,94.50
2018-11-03T20:43:54.386Z,94.20
2018-11-03T20:46:21.920Z,94.10
2018-11-03T20:48:48.665Z,94.10
2018-11-03T20:51:16.111Z,94.00
2018-11-03T20:53:44.959Z,94.00
2018-11-03T20:56:13.394Z,94.50
2018-11-03T20:58:40.870Z,94.10
2018-11-03T21:01:08.407Z,94.10
2018-11-03T21:03:38.886Z,94.50
2018-11-03T21:06:06.049Z,94.50
2018-11-03T21:08:33.759Z,94.40
2018-11-03T21:11:02.660Z,95.20
2018-11-03T21:13:30.326Z,94.80
2018-11-03T21:15:57.976Z,95.00
2018-11-03T21:18:26.778Z,94.60
2018-11-03T21:20:56.678Z,94.30
2018-11-03T21:23:23.561Z,94.50
2018-11-03T21:25:51.092Z,94.30
2018-11-03T21:28:19.335Z,95.10
2018-11-03T21:30:46.226Z,95.60
2018-11-03T21:33:14.470Z,95.10
2018-11-03T21:35:42.246Z,94.60
2018-11-03T21:38:09.338Z,94.50
2018-11-03T21:40:36.036Z,96.00
2018-11-03T21:43:03.826Z,96.70
2018-11-03T21:45:30.963Z,96.40
2018-11-03T21:47:58.241Z,96.00
2018-11-03T21:50:26.213Z,95.50
2018-11-03T21:52:53.335Z,94.90
2018-11-03T21:55:20.469Z,95.00
2018-11-03T21:57:48.098Z,94.90
2018-11-03T22:00:16.144Z,94.60
2018-11-03T22:02:44.129Z,95.00
2018-11-03T22:05:11.941Z,94.80
2018-11-03T22:07:40.101Z,94.70
2018-11-03T22:10:08.042Z,95.00
2018-11-03T22:12:36.534Z,94.80
2018-11-03T22:15:05.190Z,94.80
2018-11-03T22:17:31.985Z,95.60
2018-11-03T22:20:01.495Z,95.50
2018-11-03T22:22:30.058Z,95.50
2018-11-03T22:24:58.010Z,95.40
2018-11-03T22:27:25.833Z,94.90
2018-11-03T22:29:52.976Z,95.10
2018-11-03T22:32:21.061Z,95.30
2018-11-03T22:34:48.351Z,95.60
2018-11-03T22:37:17.826Z,95.40
2018-11-03T22:39:45.077Z,95.20
2018-11-03T22:44:47.909Z,95.50
2018-11-03T22:47:15.045Z,95.40
2018-11-03T22:49:41.991Z,95.40
2018-11-03T22:52:10.690Z,95.60
2018-11-03T22:54:38.031Z,95.00
2018-11-03T22:57:05.075Z,94.70
2018-11-03T22:59:32.663Z,94.50
2018-11-03T23:02:01.235Z,94.90
2018-11-03T23:04:28.730Z,95.10
2018-11-03T23:06:56.190Z,95.00
2018-11-03T23:09:23.691Z,94.60
2018-11-03T23:11:50.723Z,94.40
2018-11-03T23:14:18.669Z,95.10
2018-11-03T23:16:48.337Z,94.70
2018-11-03T23:19:15.845Z,94.30
2018-11-03T23:21:43.875Z,94.50
2018-11-03T23:24:12.077Z,94.60
2018-11-03T23:26:39.995Z,94.80
2018-11-03T23:29:07.418Z,94.20
2018-11-03T23:31:35.650Z,94.80
2018-11-03T23:34:04.964Z,95.70
2018-11-03T23:36:32.050Z,96.10
2018-11-03T23:38:59.215Z,96.20
2018-11-03T23:41:27.460Z,95.90
2018-11-03T23:43:54.945Z,95.90
2018-11-03T23:46:23.399Z,96.30
2018-11-03T23:48:52.320Z,96.10
2018-11-03T23:51:20.121Z,95.80
2018-11-03T23:53:47.721Z,95.70
2018-11-03T23:56:16.054Z,95.10
2018-11-03T23:58:44.004Z,95.50
